createdAt,value
2019-03-11T00:01:20.984Z,84.8
2019-03-11T00:01:51.215Z,84.8
2019-03-11T00:02:21.428Z,85.1
2019-03-11T00:02:51.641Z,85.1
2019-03-11T00:03:21.860Z,85.1
2019-03-11T00:04:20.167Z,84.5
2019-03-11T00:05:17.185Z,84.6
2019-03-11T00:06:15.795Z,84.5
2019-03-11T00:07:15.272Z,84.5
2019-03-11T00:08:13.991Z,84.4
2019-03-11T00:09:13.294Z,84.3
2019-03-11T00:10:12.168Z,84.6
2019-03-11T00:11:10.969Z,84.3
2019-03-11T00:11:41.587Z,84.3
2019-03-11T00:12:12.026Z,84.2
2019-03-11T00:12:42.178Z,84.2
2019-03-11T00:14:08.152Z,84.1
2019-03-11T00:15:07.055Z,84
2019-03-11T00:16:06.172Z,83.9
2019-03-11T00:17:05.382Z,84
2019-03-11T00:18:04.089Z,84.2
2019-03-11T00:19:03.429Z,84.2
2019-03-11T00:20:02.336Z,84.3
2019-03-11T00:20:32.954Z,84.3
2019-03-11T00:21:03.570Z,84.3
2019-03-11T00:21:34.092Z,84.3
2019-03-11T00:22:04.707Z,84.7
2019-03-11T00:22:35.136Z,84.7
2019-03-11T00:23:05.789Z,85.3
2019-03-11T00:23:36.051Z,85.3
2019-03-11T00:24:57.418Z,85
2019-03-11T00:25:56.127Z,85.4
2019-03-11T00:26:55.527Z,85.5
2019-03-11T00:27:54.252Z,85.7
2019-03-11T00:28:53.454Z,85.9
2019-03-11T00:29:52.678Z,85.9
2019-03-11T00:30:22.896Z,85.9
2019-03-11T00:30:53.526Z,85.9
2019-03-11T00:31:23.966Z,85.9
2019-03-11T00:31:54.655Z,85.8
2019-03-11T00:32:24.893Z,85.8
2019-03-11T00:32:55.381Z,85.9
2019-03-11T00:33:25.921Z,85.9
2019-03-11T00:34:47.468Z,85.4
2019-03-11T00:35:46.778Z,85.4
2019-03-11T00:36:45.586Z,85.3
2019-03-11T00:37:44.493Z,85.2
2019-03-11T00:38:43.830Z,85.1
2019-03-11T00:39:42.639Z,84.4
2019-03-11T00:40:12.755Z,84.4
2019-03-11T00:40:43.389Z,83.8
2019-03-11T00:41:13.523Z,83.8
2019-03-11T00:41:44.146Z,83.9
2019-03-11T00:42:14.763Z,83.9
2019-03-11T00:42:44.988Z,83.3
2019-03-11T00:43:15.671Z,83.3
2019-03-11T00:43:45.693Z,82.9
2019-03-11T00:44:16.315Z,82.9
2019-03-11T00:45:36.777Z,81.9
2019-03-11T00:46:35.700Z,81.4
2019-03-11T00:47:34.911Z,80.7
2019-03-11T00:48:33.809Z,81.1
2019-03-11T00:49:32.616Z,81.2
2019-03-11T00:50:03.135Z,81.2
2019-03-11T00:50:33.681Z,81.2
2019-03-11T00:51:03.860Z,81.2
2019-03-11T00:51:34.292Z,81.5
2019-03-11T00:52:04.720Z,81.5
2019-03-11T00:52:35.362Z,81.8
2019-03-11T00:53:05.522Z,81.8
2019-03-11T00:53:36.047Z,82
2019-03-11T00:54:06.762Z,82
2019-03-11T00:55:26.653Z,81.8
2019-03-11T00:56:25.778Z,81.9
2019-03-11T00:58:23.879Z,82.3
2019-03-11T00:59:22.788Z,82
2019-03-11T01:00:22.101Z,81.9
2019-03-11T01:00:52.628Z,81.9
2019-03-11T01:01:23.283Z,81.9
2019-03-11T01:01:53.911Z,81.9
2019-03-11T01:02:24.269Z,82
2019-03-11T01:02:54.993Z,82
2019-03-11T01:03:25.626Z,82.1
2019-03-11T01:03:55.744Z,82.1
2019-03-11T01:05:17.194Z,82.3
2019-03-11T01:06:16.220Z,82.4
2019-03-11T01:07:14.920Z,82.5
2019-03-11T01:08:14.333Z,82.1
2019-03-11T01:09:13.050Z,82.3
2019-03-11T01:10:11.991Z,82.4
2019-03-11T01:10:42.320Z,82.4
2019-03-11T01:11:12.844Z,82.4
2019-03-11T01:11:43.364Z,82.4
2019-03-11T01:12:13.987Z,82.1
2019-03-11T01:12:44.608Z,82.1
2019-03-11T01:13:15.240Z,82.1
2019-03-11T01:13:45.765Z,82.1
2019-03-11T01:15:07.333Z,82.1
2019-03-11T01:16:06.231Z,82.1
2019-03-11T01:17:05.149Z,82.2
2019-03-11T01:18:04.459Z,82.2
2019-03-11T01:19:03.358Z,81.9
2019-03-11T01:20:02.180Z,81.8
2019-03-11T01:21:01.486Z,81.5
2019-03-11T01:21:31.733Z,81.5
2019-03-11T01:22:02.362Z,81.4
2019-03-11T01:22:32.799Z,81.4
2019-03-11T01:23:58.277Z,81.6
2019-03-11T01:24:57.182Z,81.6
2019-03-11T01:25:56.565Z,80.9
2019-03-11T01:26:55.477Z,80.8
2019-03-11T01:27:54.701Z,81
2019-03-11T01:28:53.507Z,81.1
2019-03-11T01:29:52.457Z,81.3
2019-03-11T01:30:51.670Z,81.2
2019-03-11T01:31:50.476Z,81.1
2019-03-11T01:32:21.143Z,81.1
2019-03-11T01:32:51.353Z,81
2019-03-11T01:33:21.884Z,81
2019-03-11T01:34:47.370Z,81.4
2019-03-11T01:35:46.786Z,81
2019-03-11T01:36:45.740Z,80.7
2019-03-11T01:37:44.449Z,80.5
2019-03-11T01:38:43.755Z,80.4
2019-03-11T01:39:42.562Z,80.5
2019-03-11T01:40:41.780Z,80.6
2019-03-11T01:41:40.643Z,80.3
2019-03-11T01:42:10.859Z,80.3
2019-03-11T01:42:41.488Z,80.1
2019-03-11T01:43:12.120Z,80.1
2019-03-11T01:44:37.919Z,79.8
2019-03-11T01:45:36.911Z,79.6
2019-03-11T01:46:35.623Z,79.9
2019-03-11T01:47:34.834Z,79.7
2019-03-11T01:48:33.636Z,79.7
2019-03-11T01:49:32.876Z,79.7
2019-03-11T01:50:32.082Z,78.9
2019-03-11T01:51:30.995Z,79.4
2019-03-11T01:53:29.098Z,78.5
2019-03-11T01:54:28.048Z,78.3
2019-03-11T01:55:26.963Z,78.2
2019-03-11T01:57:24.787Z,78.1
2019-03-11T01:57:54.983Z,78.1
2019-03-11T01:58:25.189Z,78.2
2019-03-11T01:59:23.081Z,78.2
2019-03-11T02:00:21.806Z,78.3
2019-03-11T02:01:21.012Z,78.4
2019-03-11T02:02:19.892Z,78
2019-03-11T02:03:19.341Z,78
2019-03-11T02:04:18.060Z,77.9
2019-03-11T02:05:17.342Z,77.9
2019-03-11T02:06:16.119Z,78
2019-03-11T02:07:15.426Z,78.2
2019-03-11T02:08:14.130Z,77.9
2019-03-11T02:08:44.761Z,77.9
2019-03-11T02:09:15.402Z,77.7
2019-03-11T02:10:12.174Z,78
2019-03-11T02:11:11.099Z,78
2019-03-11T02:12:10.497Z,78.2
2019-03-11T02:13:09.207Z,78.1
2019-03-11T02:14:08.514Z,77.8
2019-03-11T02:15:07.220Z,77.8
2019-03-11T02:16:06.625Z,77.9
2019-03-11T02:17:05.526Z,77.7
2019-03-11T02:17:36.040Z,77.7
2019-03-11T02:18:06.654Z,77.5
2019-03-11T02:18:37.270Z,77.5
2019-03-11T02:20:02.241Z,78
2019-03-11T02:21:01.622Z,78.4
2019-03-11T02:22:00.322Z,78.4
2019-03-11T02:22:59.641Z,78.4
2019-03-11T02:23:58.342Z,77.8
2019-03-11T02:24:57.651Z,77.9
2019-03-11T02:25:56.779Z,77.7
2019-03-11T02:26:55.582Z,77.4
2019-03-11T02:27:25.700Z,77.4
2019-03-11T02:27:56.294Z,77.9
2019-03-11T02:28:26.909Z,77.9
2019-03-11T02:28:57.430Z,78
2019-03-11T02:29:27.916Z,78
2019-03-11T02:30:51.807Z,77.6
2019-03-11T02:31:50.656Z,77.6
2019-03-11T02:32:49.643Z,77.9
2019-03-11T02:33:48.778Z,77.3
2019-03-11T02:34:47.599Z,76.5
2019-03-11T02:35:46.814Z,77.3
2019-03-11T02:36:45.786Z,76.7
2019-03-11T02:37:15.922Z,76.7
2019-03-11T02:37:46.379Z,76.8
2019-03-11T02:38:16.984Z,76.8
2019-03-11T02:38:47.256Z,76.9
2019-03-11T02:39:17.982Z,76.9
2019-03-11T02:40:42.088Z,76.7
2019-03-11T02:42:39.786Z,76.4
2019-03-11T02:43:38.727Z,76.5
2019-03-11T02:45:36.978Z,76
2019-03-11T02:46:35.892Z,76
2019-03-11T02:47:06.128Z,76
2019-03-11T02:47:36.767Z,75.6
2019-03-11T02:48:07.012Z,75.6
2019-03-11T02:48:37.401Z,75.7
2019-03-11T02:49:07.536Z,75.7
2019-03-11T02:49:38.267Z,75.6
2019-03-11T02:50:08.591Z,75.6
2019-03-11T02:51:31.226Z,76.2
2019-03-11T02:52:30.152Z,76.1
2019-03-11T02:53:29.316Z,76.5
2019-03-11T02:54:28.180Z,76.4
2019-03-11T02:55:27.114Z,76.8
2019-03-11T02:56:26.100Z,76.6
2019-03-11T02:56:56.688Z,76.6
2019-03-11T02:57:27.110Z,76.8
2019-03-11T02:57:57.365Z,76.8
2019-03-11T02:58:28.025Z,77
2019-03-11T02:58:58.473Z,77
2019-03-11T02:59:29.044Z,76.7
2019-03-11T02:59:59.263Z,76.7
2019-03-11T03:00:29.919Z,76.6
2019-03-11T03:01:00.267Z,76.6
2019-03-11T03:02:20.353Z,77.3
2019-03-11T03:03:19.496Z,76.7
2019-03-11T03:04:18.529Z,77.1
2019-03-11T03:05:17.286Z,77.3
2019-03-11T03:06:16.629Z,77.1
2019-03-11T03:06:47.302Z,77.1
2019-03-11T03:07:17.527Z,77.2
2019-03-11T03:07:47.753Z,77.2
2019-03-11T03:08:18.220Z,76.8
2019-03-11T03:08:48.549Z,76.8
2019-03-11T03:09:19.186Z,76.8
2019-03-11T03:09:49.498Z,76.8
2019-03-11T03:10:19.738Z,76.8
2019-03-11T03:10:50.374Z,76.8
2019-03-11T03:12:10.362Z,76.8
2019-03-11T03:13:09.791Z,76.7
2019-03-11T03:14:08.721Z,76.8
2019-03-11T03:15:07.553Z,77.3
2019-03-11T03:16:06.484Z,76.9
2019-03-11T03:16:36.792Z,76.9
2019-03-11T03:17:07.035Z,76.9
2019-03-11T03:17:37.166Z,76.9
2019-03-11T03:18:07.928Z,77.2
2019-03-11T03:18:38.144Z,77.2
2019-03-11T03:19:08.819Z,76.9
2019-03-11T03:19:39.442Z,76.9
2019-03-11T03:20:10.192Z,77.2
2019-03-11T03:20:40.644Z,77.2
2019-03-11T03:22:00.529Z,77.4
2019-03-11T03:22:59.872Z,77
2019-03-11T03:23:58.732Z,77.2
2019-03-11T03:24:57.654Z,77.2
2019-03-11T03:25:56.611Z,77.2
2019-03-11T03:26:55.967Z,77.3
2019-03-11T03:27:26.600Z,77.3
2019-03-11T03:27:57.284Z,77.5
2019-03-11T03:28:27.293Z,77.5
2019-03-11T03:28:58.024Z,77.4
2019-03-11T03:29:28.670Z,77.4
2019-03-11T03:29:59.244Z,77.5
2019-03-11T03:30:29.890Z,77.5
2019-03-11T03:31:51.159Z,77.5
2019-03-11T03:32:49.744Z,77
2019-03-11T03:33:48.799Z,77.3
2019-03-11T03:34:47.814Z,76.8
2019-03-11T03:35:47.128Z,76.8
2019-03-11T03:36:46.044Z,77
2019-03-11T03:37:45.028Z,77.1
2019-03-11T03:38:31.432Z,77.1
2019-03-11T03:39:43.107Z,76.9
2019-03-11T03:40:13.664Z,76.9
2019-03-11T03:40:44.323Z,77
2019-03-11T03:41:14.930Z,77
2019-03-11T03:41:45.561Z,77.3
2019-03-11T03:42:39.970Z,77.3
2019-03-11T03:43:39.111Z,77.2
2019-03-11T03:44:38.080Z,77.1
2019-03-11T03:45:36.924Z,77.4
2019-03-11T03:46:35.888Z,77.5
2019-03-11T03:47:35.313Z,77.6
2019-03-11T03:48:05.868Z,77.6
2019-03-11T03:48:36.766Z,77.5
2019-03-11T03:49:06.941Z,77.5
2019-03-11T03:49:37.282Z,77.4
2019-03-11T03:50:07.417Z,77.4
2019-03-11T03:51:31.011Z,77.4
2019-03-11T03:52:29.939Z,77.8
2019-03-11T03:53:29.283Z,77.9
2019-03-11T03:54:28.160Z,77.3
2019-03-11T03:55:27.421Z,77.4
2019-03-11T03:56:26.360Z,77.3
2019-03-11T03:57:25.198Z,77.2
2019-03-11T03:58:23.850Z,77.1
2019-03-11T03:58:54.600Z,77.1
2019-03-11T03:59:25.232Z,77.3
2019-03-11T03:59:55.899Z,77.3
2019-03-11T04:00:26.261Z,77.5
2019-03-11T04:00:56.548Z,77.5
2019-03-11T04:01:27.187Z,77.4
2019-03-11T04:02:20.486Z,77.5
2019-03-11T04:03:19.419Z,77.5
2019-03-11T04:04:18.249Z,77.9
2019-03-11T04:05:17.183Z,77.8
2019-03-11T04:06:16.307Z,77.5
2019-03-11T04:07:15.215Z,77.6
2019-03-11T04:08:14.130Z,77.5
2019-03-11T04:09:13.481Z,77.8
2019-03-11T04:09:44.041Z,77.8
2019-03-11T04:10:14.301Z,77.9
2019-03-11T04:11:11.427Z,77.5
2019-03-11T04:12:10.324Z,77.4
2019-03-11T04:13:09.603Z,77.2
2019-03-11T04:14:08.599Z,77.3
2019-03-11T04:14:39.267Z,77.3
2019-03-11T04:15:09.828Z,77.2
2019-03-11T04:17:05.516Z,77.4
2019-03-11T04:18:04.259Z,77
2019-03-11T04:19:03.612Z,77.5
2019-03-11T04:19:34.169Z,77.5
2019-03-11T04:20:04.340Z,77.2
2019-03-11T04:21:01.588Z,77.3
2019-03-11T04:22:00.446Z,77
2019-03-11T04:22:59.608Z,77.2
2019-03-11T04:23:58.536Z,76.5
2019-03-11T04:24:29.233Z,76.5
2019-03-11T04:24:59.429Z,76
2019-03-11T04:25:29.823Z,76
2019-03-11T04:26:00.453Z,76.3
2019-03-11T04:26:55.822Z,76.4
2019-03-11T04:27:54.217Z,76.5
2019-03-11T04:28:53.469Z,76.5
2019-03-11T04:29:52.499Z,76.7
2019-03-11T04:30:51.320Z,76.9
2019-03-11T04:31:50.632Z,76.5
2019-03-11T04:32:49.444Z,76.7
2019-03-11T04:33:48.363Z,76.3
2019-03-11T04:34:18.597Z,76.3
2019-03-11T04:34:48.844Z,76.1
2019-03-11T04:35:19.550Z,76.1
2019-03-11T04:35:50.224Z,76.4
2019-03-11T04:36:20.507Z,76.4
2019-03-11T04:36:50.679Z,75.7
2019-03-11T04:37:44.359Z,75.7
2019-03-11T04:38:43.685Z,75.7
2019-03-11T04:39:42.598Z,75.9
2019-03-11T04:40:41.810Z,76
2019-03-11T04:41:40.705Z,76.2
2019-03-11T04:42:39.614Z,76.1
2019-03-11T04:43:38.631Z,76
2019-03-11T04:44:09.151Z,76
2019-03-11T04:44:39.806Z,76.1
2019-03-11T04:45:09.939Z,76.1
2019-03-11T04:46:35.735Z,76.3
2019-03-11T04:47:35.054Z,76
2019-03-11T04:48:33.818Z,76.6
2019-03-11T04:49:32.945Z,76.5
2019-03-11T04:50:31.783Z,76.5
2019-03-11T04:51:30.931Z,76.8
2019-03-11T04:52:29.851Z,76.4
2019-03-11T04:53:28.665Z,76.7
2019-03-11T04:53:58.885Z,76.7
2019-03-11T04:54:29.512Z,76.6
2019-03-11T04:55:00.040Z,76.6
2019-03-11T04:55:30.348Z,76.4
2019-03-11T04:56:00.578Z,76.4
2019-03-11T04:58:23.936Z,76.6
2019-03-11T04:59:23.149Z,76.5
2019-03-11T05:00:21.766Z,76.4
2019-03-11T05:01:21.176Z,76.4
2019-03-11T05:02:19.888Z,76.7
2019-03-11T05:03:18.808Z,76.2
2019-03-11T05:03:49.038Z,76.2
2019-03-11T05:04:19.274Z,76.3
2019-03-11T05:04:49.396Z,76.3
2019-03-11T05:05:19.926Z,76.4
2019-03-11T05:05:50.545Z,76.4
2019-03-11T05:06:21.188Z,76.1
2019-03-11T05:06:51.727Z,76.1
2019-03-11T05:08:14.294Z,76.4
2019-03-11T05:09:13.080Z,76.6
2019-03-11T05:10:12.204Z,76.5
2019-03-11T05:11:11.275Z,76.6
2019-03-11T05:13:09.063Z,76.6
2019-03-11T05:13:39.605Z,76.6
2019-03-11T05:14:10.140Z,76.8
2019-03-11T05:14:40.262Z,76.8
2019-03-11T05:15:10.703Z,76.7
2019-03-11T05:15:40.937Z,76.7
2019-03-11T05:16:11.458Z,76.5
2019-03-11T05:16:41.997Z,76.5
2019-03-11T05:18:04.388Z,76.7
2019-03-11T05:19:03.221Z,76.8
2019-03-11T05:20:02.352Z,76.7
2019-03-11T05:21:01.087Z,76.8
2019-03-11T05:22:00.408Z,76.9
2019-03-11T05:22:59.133Z,76.9
2019-03-11T05:23:29.773Z,76.9
2019-03-11T05:24:00.229Z,76.8
2019-03-11T05:24:30.444Z,76.8
2019-03-11T05:25:00.682Z,77
2019-03-11T05:25:30.831Z,77
2019-03-11T05:26:01.470Z,76.9
2019-03-11T05:26:31.803Z,76.9
2019-03-11T05:27:02.434Z,77.2
2019-03-11T05:27:32.983Z,77.2
2019-03-11T05:28:53.445Z,76.9
2019-03-11T05:30:51.648Z,76.9
2019-03-11T05:31:50.455Z,77.1
2019-03-11T05:32:49.671Z,77.2
2019-03-11T05:33:20.223Z,77.2
2019-03-11T05:33:50.451Z,77.2
2019-03-11T05:34:21.007Z,77.2
2019-03-11T05:34:51.654Z,77.4
2019-03-11T05:35:22.107Z,77.4
2019-03-11T05:35:52.721Z,77.4
2019-03-11T05:36:23.483Z,77.4
2019-03-11T05:36:53.918Z,77.2
2019-03-11T05:37:24.359Z,77.2
2019-03-11T05:38:43.306Z,77.5
2019-03-11T05:39:42.641Z,77.4
2019-03-11T05:40:41.788Z,77.4
2019-03-11T05:41:40.792Z,77.4
2019-03-11T05:42:39.503Z,77.5
2019-03-11T05:43:38.725Z,77.5
2019-03-11T05:44:09.402Z,77.5
2019-03-11T05:44:40.033Z,77.6
2019-03-11T05:45:10.566Z,77.6
2019-03-11T05:45:41.201Z,77.7
2019-03-11T05:46:12.297Z,77.7
2019-03-11T05:46:41.735Z,77.5
2019-03-11T05:47:12.275Z,77.5
2019-03-11T05:48:33.550Z,77.6
2019-03-11T05:49:32.960Z,77.3
2019-03-11T05:50:31.771Z,77.3
2019-03-11T05:51:32.321Z,77.3
2019-03-11T05:52:29.626Z,77.5
2019-03-11T05:53:28.961Z,77.5
2019-03-11T05:54:27.677Z,77.9
2019-03-11T05:54:57.906Z,77.9
2019-03-11T05:55:28.430Z,77.8
2019-03-11T05:55:58.996Z,77.8
2019-03-11T05:56:29.338Z,77.5
2019-03-11T05:56:59.598Z,77.5
2019-03-11T05:58:23.725Z,77.6
2019-03-11T05:59:22.575Z,77.7
2019-03-11T06:00:22.021Z,77.4
2019-03-11T06:01:20.823Z,77.7
2019-03-11T06:02:20.129Z,77.4
2019-03-11T06:04:17.915Z,77.5
2019-03-11T06:04:48.541Z,77.5
2019-03-11T06:05:19.191Z,77.2
2019-03-11T06:05:49.320Z,77.2
2019-03-11T06:06:20.048Z,77.2
2019-03-11T06:06:50.680Z,77.2
2019-03-11T06:08:14.059Z,77.1
2019-03-11T06:09:12.975Z,77.2
2019-03-11T06:10:12.196Z,77.2
2019-03-11T06:11:10.808Z,76.7
2019-03-11T06:14:08.192Z,76.8
2019-03-11T06:18:04.189Z,76.2
2019-03-11T06:19:03.006Z,76.1
2019-03-11T06:22:59.015Z,75.4
2019-03-11T06:23:58.150Z,75.6
2019-03-11T06:25:56.352Z,75.6
2019-03-11T06:26:26.612Z,75.6
2019-03-11T06:26:56.735Z,75.5
2019-03-11T06:32:49.448Z,75.3
2019-03-11T06:33:48.362Z,75.3
2019-03-11T06:34:47.681Z,75
2019-03-11T06:35:46.602Z,75.3
2019-03-11T06:36:17.237Z,75.3
2019-03-11T06:37:44.325Z,75.6
2019-03-11T06:38:43.736Z,76.1
2019-03-11T06:39:42.354Z,75.9
2019-03-11T06:40:41.475Z,75.7
2019-03-11T06:41:12.024Z,75.7
2019-03-11T06:41:42.658Z,75.3
2019-03-11T06:42:12.929Z,75.3
2019-03-11T06:46:35.868Z,76.5
2019-03-11T06:50:31.847Z,76.5
2019-03-11T06:51:02.483Z,76.5
2019-03-11T06:52:29.479Z,76.5
2019-03-11T06:59:22.991Z,79.2
2019-03-11T07:06:16.236Z,84
2019-03-11T07:08:13.925Z,85.2
2019-03-11T07:11:11.001Z,85.1
2019-03-11T07:11:41.641Z,85.1
2019-03-11T07:15:07.346Z,85.4
2019-03-11T07:16:06.256Z,85.4
2019-03-11T07:22:59.132Z,84.7
2019-03-11T07:23:29.567Z,84.7
2019-03-11T07:26:55.240Z,85.1
2019-03-11T07:27:54.361Z,85.2
2019-03-11T07:30:51.450Z,85.3
2019-03-11T07:31:22.084Z,85.3
2019-03-11T07:31:52.305Z,85.2
2019-03-11T07:32:22.843Z,85.2
2019-03-11T07:33:48.479Z,85.6
2019-03-11T07:34:18.986Z,85.6
2019-03-11T07:35:46.583Z,85.7
2019-03-11T07:36:45.363Z,85.6
2019-03-11T07:38:43.453Z,85.5
2019-03-11T07:39:42.578Z,85.1
2019-03-11T07:40:13.016Z,85.1
2019-03-11T07:45:36.657Z,84.9
2019-03-11T07:46:35.376Z,83.8
2019-03-11T07:47:34.689Z,83.6
2019-03-11T07:48:33.612Z,83.3
2019-03-11T07:49:32.527Z,82.7
2019-03-11T07:50:02.748Z,82.7
2019-03-11T07:50:32.993Z,82.6
2019-03-11T07:51:03.667Z,82.6
2019-03-11T07:51:34.284Z,82.1
2019-03-11T07:52:04.889Z,82.1
2019-03-11T07:52:35.118Z,82
2019-03-11T07:53:05.753Z,82
2019-03-11T07:53:36.405Z,81
2019-03-11T07:54:07.040Z,81
2019-03-11T07:55:26.587Z,80
2019-03-11T07:56:25.812Z,79.7
2019-03-11T07:57:24.620Z,79.6
2019-03-11T07:58:23.740Z,78.6
2019-03-11T07:59:22.556Z,78.9
2019-03-11T08:00:21.766Z,78.9
2019-03-11T08:00:54.507Z,78.9
2019-03-11T08:01:22.724Z,79.3
2019-03-11T08:01:53.352Z,79.3
2019-03-11T08:02:24.013Z,78.5
2019-03-11T08:02:54.646Z,78.5
2019-03-11T08:03:24.877Z,78.6
2019-03-11T08:03:55.504Z,78.6
2019-03-11T08:05:17.060Z,78.1
2019-03-11T08:06:19.292Z,78.7
2019-03-11T08:07:14.991Z,78.4
2019-03-11T08:08:13.631Z,78.4
2019-03-11T08:09:13.068Z,77.8
2019-03-11T08:10:11.779Z,78.2
2019-03-11T08:10:42.324Z,78.2
2019-03-11T08:11:12.952Z,78.2
2019-03-11T08:11:43.600Z,78.2
2019-03-11T08:12:14.250Z,78
2019-03-11T08:12:44.908Z,78
2019-03-11T08:13:15.445Z,77.3
2019-03-11T08:13:46.082Z,77.3
2019-03-11T08:15:06.845Z,77.2
2019-03-11T08:16:06.273Z,77.2
2019-03-11T08:17:05.181Z,77.5
2019-03-11T08:18:03.908Z,76.3
2019-03-11T08:19:03.318Z,76.3
2019-03-11T08:20:02.156Z,76.2
2019-03-11T08:21:00.984Z,76.5
2019-03-11T08:21:31.510Z,76.5
2019-03-11T08:22:02.233Z,76.5
2019-03-11T08:22:32.773Z,76.5
2019-03-11T08:23:03.210Z,75.3
2019-03-11T08:23:36.059Z,75.3
2019-03-11T08:24:57.115Z,75.9
2019-03-11T08:25:56.431Z,76
2019-03-11T08:26:55.242Z,75.5
2019-03-11T08:27:54.142Z,75.6
2019-03-11T08:28:53.459Z,75
2019-03-11T08:29:52.287Z,74.6
2019-03-11T08:30:51.103Z,74.8
2019-03-11T08:31:50.329Z,74
2019-03-11T08:32:20.669Z,74
2019-03-11T08:32:51.205Z,73.4
2019-03-11T08:33:21.709Z,73.4
2019-03-11T08:33:52.007Z,73.1
2019-03-11T08:34:22.642Z,73.1
2019-03-11T08:34:53.169Z,73.1
2019-03-11T08:35:46.452Z,73.1
2019-03-11T08:37:44.465Z,72.7
2019-03-11T08:38:43.352Z,72.7
2019-03-11T08:40:43.255Z,72.6
2019-03-11T08:41:40.670Z,72.1
2019-03-11T08:42:39.491Z,72.1
2019-03-11T08:43:09.615Z,72.1
2019-03-11T08:43:40.255Z,71.9
2019-03-11T08:44:37.501Z,72
2019-03-11T08:45:36.824Z,72.2
2019-03-11T08:46:35.641Z,72.2
2019-03-11T08:47:34.451Z,71.3
2019-03-11T08:48:33.771Z,70.7
2019-03-11T08:49:32.993Z,70.4
2019-03-11T08:50:31.813Z,70.7
2019-03-11T08:51:30.622Z,70.7
2019-03-11T08:52:29.649Z,69.6
2019-03-11T08:52:59.883Z,69.6
2019-03-11T08:53:30.120Z,69.9
2019-03-11T08:54:28.016Z,69.8
2019-03-11T08:55:26.834Z,68.8
2019-03-11T08:56:25.766Z,69.4
2019-03-11T08:57:25.081Z,68.7
2019-03-11T08:57:55.712Z,68.7
2019-03-11T08:58:25.955Z,68.8
2019-03-11T08:59:23.254Z,68.4
2019-03-11T09:00:22.067Z,67.8
2019-03-11T09:01:20.977Z,68.1
2019-03-11T09:02:20.292Z,68.5
2019-03-11T09:03:19.124Z,68.1
2019-03-11T09:04:18.076Z,67.8
2019-03-11T09:05:17.506Z,67.3
2019-03-11T09:06:16.416Z,67.5
2019-03-11T09:07:15.135Z,67.6
2019-03-11T09:07:45.678Z,67.6
2019-03-11T09:08:16.309Z,67.5
2019-03-11T09:08:46.539Z,67.5
2019-03-11T09:09:17.006Z,67.5
2019-03-11T09:10:12.296Z,66.9
2019-03-11T09:11:11.169Z,67.4
2019-03-11T09:13:09.498Z,67.8
2019-03-11T09:14:08.719Z,68.6
2019-03-11T09:15:07.622Z,69
2019-03-11T09:16:06.741Z,69
2019-03-11T09:18:04.447Z,69
2019-03-11T09:18:35.090Z,69
2019-03-11T09:20:02.597Z,69
2019-03-11T09:21:01.914Z,69
2019-03-11T09:22:00.609Z,68.2
2019-03-11T09:22:59.823Z,68.2
2019-03-11T09:23:59.052Z,68.3
2019-03-11T09:24:57.959Z,68.8
2019-03-11T09:25:56.874Z,68.3
2019-03-11T09:26:56.201Z,68
2019-03-11T09:27:26.487Z,68
2019-03-11T09:27:56.706Z,68.3
2019-03-11T09:28:27.472Z,68.3
2019-03-11T09:29:52.858Z,67.6
2019-03-11T09:30:52.277Z,67.6
2019-03-11T09:31:51.193Z,67
2019-03-11T09:32:50.009Z,66.9
2019-03-11T09:33:49.228Z,67
2019-03-11T09:34:48.044Z,67.2
2019-03-11T09:35:47.351Z,67.1
2019-03-11T09:36:46.072Z,66.7
2019-03-11T09:37:16.707Z,66.7
2019-03-11T09:37:47.236Z,67.2
2019-03-11T09:38:17.902Z,67.2
2019-03-11T09:38:48.104Z,67
2019-03-11T09:39:18.546Z,67
2019-03-11T09:39:49.080Z,67.7
2019-03-11T09:40:19.742Z,67.7
2019-03-11T09:43:39.378Z,67.2
2019-03-11T09:44:38.511Z,66.8
2019-03-11T09:45:37.419Z,67.5
2019-03-11T09:46:36.812Z,67
2019-03-11T09:47:07.445Z,67
2019-03-11T09:47:37.979Z,66.2
2019-03-11T09:48:08.430Z,66.2
2019-03-11T09:48:39.063Z,65.9
2019-03-11T09:49:09.382Z,65.9
2019-03-11T09:49:39.518Z,66.8
2019-03-11T09:50:10.236Z,66.8
2019-03-11T09:51:31.493Z,67.1
2019-03-11T09:52:30.899Z,67.4
2019-03-11T09:54:29.103Z,67.8
2019-03-11T09:55:27.814Z,67.8
2019-03-11T09:56:27.020Z,67.9
2019-03-11T09:56:57.666Z,67.9
2019-03-11T09:57:28.193Z,68.1
2019-03-11T09:57:58.725Z,68.1
2019-03-11T09:58:29.352Z,68.8
2019-03-11T09:58:59.576Z,68.8
2019-03-11T10:00:23.137Z,67.2
2019-03-11T10:00:53.674Z,67.2
2019-03-11T10:02:21.083Z,68
2019-03-11T10:03:20.503Z,66.7
2019-03-11T10:04:19.341Z,67.1
2019-03-11T10:05:18.468Z,66.3
2019-03-11T10:06:17.290Z,66.7
2019-03-11T10:06:47.949Z,66.7
2019-03-11T10:07:18.482Z,65.6
2019-03-11T10:07:48.783Z,65.6
2019-03-11T10:08:19.203Z,65.8
2019-03-11T10:08:49.678Z,65.8
2019-03-11T10:09:20.316Z,66
2019-03-11T10:09:50.970Z,66
2019-03-11T10:10:21.193Z,65.9
2019-03-11T10:10:51.852Z,65.9
2019-03-11T10:12:11.402Z,65.1
2019-03-11T10:14:09.494Z,65
2019-03-11T10:15:08.843Z,64.7
2019-03-11T10:16:07.563Z,64.2
2019-03-11T10:18:05.768Z,64
2019-03-11T10:18:36.064Z,64
2019-03-11T10:19:06.705Z,64.5
2019-03-11T10:19:36.937Z,64.5
2019-03-11T10:20:07.069Z,65
2019-03-11T10:20:37.814Z,65
2019-03-11T10:22:01.826Z,65.4
2019-03-11T10:23:01.049Z,65.7
2019-03-11T10:24:00.376Z,65.5
2019-03-11T10:24:59.104Z,65.5
2019-03-11T10:25:58.334Z,66
2019-03-11T10:26:57.059Z,65.9
2019-03-11T10:27:56.087Z,66.2
2019-03-11T10:28:26.306Z,66.2
2019-03-11T10:28:56.935Z,66.2
2019-03-11T10:29:27.579Z,66.2
2019-03-11T10:29:57.913Z,66
2019-03-11T10:30:28.435Z,66
2019-03-11T10:31:52.722Z,65.7
2019-03-11T10:32:51.540Z,65.4
2019-03-11T10:33:50.688Z,64
2019-03-11T10:34:49.513Z,64
2019-03-11T10:35:48.736Z,64.3
2019-03-11T10:36:47.566Z,63.8
2019-03-11T10:37:46.692Z,64.5
2019-03-11T10:38:46.010Z,62.9
2019-03-11T10:39:16.259Z,62.9
2019-03-11T10:39:48.359Z,63.4
2019-03-11T10:40:17.489Z,63.4
2019-03-11T10:41:42.882Z,64.2
2019-03-11T10:42:42.203Z,64.6
2019-03-11T10:43:40.920Z,64.7
2019-03-11T10:44:40.040Z,65.3
2019-03-11T10:45:39.164Z,65.5
2019-03-11T10:46:38.386Z,65.3
2019-03-11T10:47:37.014Z,64.7
2019-03-11T10:48:37.864Z,64.8
2019-03-11T10:49:06.583Z,64.8
2019-03-11T10:49:37.226Z,63.9
2019-03-11T10:50:07.757Z,63.9
2019-03-11T10:51:33.367Z,63.5
2019-03-11T10:52:32.402Z,63.4
2019-03-11T10:53:31.368Z,63.2
2019-03-11T10:54:30.577Z,62.7
2019-03-11T10:55:29.730Z,63.1
2019-03-11T10:56:28.460Z,63.3
2019-03-11T10:57:27.768Z,63.1
2019-03-11T10:58:28.897Z,63.7
2019-03-11T10:59:25.591Z,63.6
2019-03-11T10:59:56.078Z,63.6
2019-03-11T11:00:26.301Z,63.9
2019-03-11T11:02:22.994Z,63.9
2019-03-11T11:04:21.093Z,64.1
2019-03-11T11:06:18.903Z,64.3
2019-03-11T11:07:18.225Z,63.9
2019-03-11T11:08:17.142Z,64.4
2019-03-11T11:09:16.491Z,64.4
2019-03-11T11:10:15.295Z,64.3
2019-03-11T11:11:14.515Z,64.1
2019-03-11T11:12:13.328Z,64.1
2019-03-11T11:13:12.637Z,64.8
2019-03-11T11:15:10.234Z,64.1
2019-03-11T11:15:40.855Z,64.1
2019-03-11T11:16:11.292Z,64.2
2019-03-11T11:17:08.609Z,64.2
2019-03-11T11:20:05.595Z,63.6
2019-03-11T11:21:04.895Z,63.6
2019-03-11T11:22:03.533Z,64.1
2019-03-11T11:23:02.866Z,64
2019-03-11T11:24:02.155Z,64.1
2019-03-11T11:25:00.786Z,64.9
2019-03-11T11:25:31.427Z,64.9
2019-03-11T11:26:58.837Z,65.1
2019-03-11T11:27:58.049Z,65.4
2019-03-11T11:28:57.270Z,65.3
2019-03-11T11:29:56.078Z,65.6
2019-03-11T11:30:55.305Z,65.5
2019-03-11T11:31:54.217Z,65.2
2019-03-11T11:32:53.630Z,65.8
2019-03-11T11:33:52.444Z,65.8
2019-03-11T11:34:23.065Z,65.8
2019-03-11T11:34:53.510Z,66.2
2019-03-11T11:35:24.136Z,66.2
2019-03-11T11:35:54.378Z,66
2019-03-11T11:36:24.916Z,66
2019-03-11T11:37:48.574Z,64.6
2019-03-11T11:38:47.425Z,64.2
2019-03-11T11:39:46.840Z,64
2019-03-11T11:40:45.753Z,63.5
2019-03-11T11:41:44.564Z,63.9
2019-03-11T11:42:43.782Z,64.1
2019-03-11T11:43:43.104Z,64.4
2019-03-11T11:44:13.739Z,64.4
2019-03-11T11:44:44.267Z,64.5
2019-03-11T11:45:14.997Z,64.5
2019-03-11T11:45:45.632Z,63.9
2019-03-11T11:46:15.754Z,63.9
2019-03-11T11:46:46.395Z,63.5
2019-03-11T11:47:17.031Z,63.5
2019-03-11T11:48:37.984Z,64.2
2019-03-11T11:49:37.310Z,63.9
2019-03-11T11:50:35.920Z,64.3
2019-03-11T11:51:35.213Z,64
2019-03-11T11:52:34.567Z,64.3
2019-03-11T11:53:33.431Z,63.4
2019-03-11T11:54:04.068Z,63.4
2019-03-11T11:54:34.593Z,63.7
2019-03-11T11:55:04.882Z,63.7
2019-03-11T11:55:35.412Z,63.4
2019-03-11T11:56:06.147Z,63.4
2019-03-11T11:56:36.356Z,63.8
2019-03-11T11:57:06.494Z,63.8
2019-03-11T11:58:28.558Z,63
2019-03-11T11:59:27.886Z,62.9
2019-03-11T12:00:26.713Z,62.9
2019-03-11T12:01:25.540Z,62.8
2019-03-11T12:02:24.659Z,62.1
2019-03-11T12:04:22.853Z,61.8
2019-03-11T12:04:53.107Z,61.8
2019-03-11T12:05:23.733Z,62.3
2019-03-11T12:05:54.228Z,62.3
2019-03-11T12:06:24.957Z,62.6
2019-03-11T12:06:55.493Z,62.6